Terminal Aerodrome Forecast
Issued by NWS

Home | Current Version | Previous Version | Text Only | Print | Product List | Glossary On
Versions: 1 2 3 4 5 6 7 8 9 10 11 12 13 14 15 16 17 18 19 20
908
FTUS41 KPBZ 231127
TAFLBE
TAF
KLBE 231127Z 2312/2412 20008KT 6SM BR SCT006 BKN025
      TEMPO 2313/2316 BKN006
     FM231800 23010KT P6SM BKN020
     FM232300 18005KT P6SM BKN035=

USA.gov is the U.S. government's official web portal to all federal, state and local government web resources and services.